sensor_id;sensor_type;location;lat;lon;timestamp;P1;durP1;ratioP1;P2;durP2;ratioP2
64291;SDS011;50628;51.008;13.658;2023-03-14T00:01:10;1.03;;;0.60;;
64291;SDS011;50628;51.008;13.658;2023-03-14T00:06:14;1.37;;;0.53;;
64291;SDS011;50628;51.008;13.658;2023-03-14T00:11:18;1.13;;;0.50;;
64291;SDS011;50628;51.008;13.658;2023-03-14T00:16:21;1.20;;;0.70;;
64291;SDS011;50628;51.008;13.658;2023-03-14T00:21:23;2.63;;;0.60;;
64291;SDS011;50628;51.008;13.658;2023-03-14T00:26:26;1.13;;;0.80;;
64291;SDS011;50628;51.008;13.658;2023-03-14T00:31:29;2.57;;;0.90;;
64291;SDS011;50628;51.008;13.658;2023-03-14T00:36:30;3.03;;;0.70;;
64291;SDS011;50628;51.008;13.658;2023-03-14T00:41:34;0.77;;;0.70;;
64291;SDS011;50628;51.008;13.658;2023-03-14T00:46:35;1.23;;;0.70;;
64291;SDS011;50628;51.008;13.658;2023-03-14T00:51:37;0.70;;;0.70;;
64291;SDS011;50628;51.008;13.658;2023-03-14T00:56:40;0.70;;;0.50;;
64291;SDS011;50628;51.008;13.658;2023-03-14T01:01:42;2.13;;;0.73;;
64291;SDS011;50628;51.008;13.658;2023-03-14T01:06:46;1.57;;;0.77;;
64291;SDS011;50628;51.008;13.658;2023-03-14T01:11:49;1.37;;;0.63;;
64291;SDS011;50628;51.008;13.658;2023-03-14T01:16:51;0.73;;;0.50;;
64291;SDS011;50628;51.008;13.658;2023-03-14T01:21:54;0.57;;;0.57;;
64291;SDS011;50628;51.008;13.658;2023-03-14T01:26:57;2.40;;;0.90;;
64291;SDS011;50628;51.008;13.658;2023-03-14T01:32:01;1.30;;;1.10;;
64291;SDS011;50628;51.008;13.658;2023-03-14T01:37:02;1.87;;;1.30;;
64291;SDS011;50628;51.008;13.658;2023-03-14T01:42:07;2.17;;;1.70;;
64291;SDS011;50628;51.008;13.658;2023-03-14T01:47:09;1.60;;;1.50;;
64291;SDS011;50628;51.008;13.658;2023-03-14T01:52:11;3.00;;;1.70;;
64291;SDS011;50628;51.008;13.658;2023-03-14T01:57:20;2.67;;;1.33;;
64291;SDS011;50628;51.008;13.658;2023-03-14T02:02:26;1.17;;;1.07;;
64291;SDS011;50628;51.008;13.658;2023-03-14T02:07:31;0.73;;;0.73;;
64291;SDS011;50628;51.008;13.658;2023-03-14T02:12:50;0.47;;;0.37;;
64291;SDS011;50628;51.008;13.658;2023-03-14T02:18:12;0.30;;;0.20;;
64291;SDS011;50628;51.008;13.658;2023-03-14T02:23:43;0.30;;;0.20;;
64291;SDS011;50628;51.008;13.658;2023-03-14T02:28:54;0.30;;;0.20;;
64291;SDS011;50628;51.008;13.658;2023-03-14T02:33:56;0.13;;;0.13;;
64291;SDS011;50628;51.008;13.658;2023-03-14T02:39:01;1.03;;;0.40;;
64291;SDS011;50628;51.008;13.658;2023-03-14T02:44:14;0.10;;;0.10;;
64291;SDS011;50628;51.008;13.658;2023-03-14T02:49:16;0.20;;;0.13;;
64291;SDS011;50628;51.008;13.658;2023-03-14T02:54:19;0.50;;;0.13;;
64291;SDS011;50628;51.008;13.658;2023-03-14T02:59:24;0.50;;;0.23;;
64291;SDS011;50628;51.008;13.658;2023-03-14T03:04:30;0.20;;;0.20;;
64291;SDS011;50628;51.008;13.658;2023-03-14T03:09:32;2.67;;;1.10;;
64291;SDS011;50628;51.008;13.658;2023-03-14T03:14:35;7.87;;;4.23;;
64291;SDS011;50628;51.008;13.658;2023-03-14T03:19:39;2.60;;;0.70;;
64291;SDS011;50628;51.008;13.658;2023-03-14T03:24:44;2.73;;;0.90;;
64291;SDS011;50628;51.008;13.658;2023-03-14T03:29:47;0.50;;;0.30;;
64291;SDS011;50628;51.008;13.658;2023-03-14T03:34:49;6.97;;;1.73;;
64291;SDS011;50628;51.008;13.658;2023-03-14T03:39:51;1.77;;;0.60;;
64291;SDS011;50628;51.008;13.658;2023-03-14T03:44:55;0.20;;;0.10;;
64291;SDS011;50628;51.008;13.658;2023-03-14T03:49:58;0.50;;;0.20;;
64291;SDS011;50628;51.008;13.658;2023-03-14T03:54:59;0.67;;;0.20;;
64291;SDS011;50628;51.008;13.658;2023-03-14T04:00:04;0.20;;;0.20;;
64291;SDS011;50628;51.008;13.658;2023-03-14T04:05:14;0.40;;;0.20;;
64291;SDS011;50628;51.008;13.658;2023-03-14T04:10:23;0.37;;;0.10;;
64291;SDS011;50628;51.008;13.658;2023-03-14T04:15:47;2.03;;;0.90;;
64291;SDS011;50628;51.008;13.658;2023-03-14T04:20:55;1.10;;;0.40;;
64291;SDS011;50628;51.008;13.658;2023-03-14T04:26:06;2.03;;;0.40;;
64291;SDS011;50628;51.008;13.658;2023-03-14T04:31:10;0.73;;;0.33;;
64291;SDS011;50628;51.008;13.658;2023-03-14T04:36:14;1.20;;;0.40;;
64291;SDS011;50628;51.008;13.658;2023-03-14T04:41:17;1.37;;;0.30;;
64291;SDS011;50628;51.008;13.658;2023-03-14T04:46:20;1.20;;;0.13;;
64291;SDS011;50628;51.008;13.658;2023-03-14T04:51:23;0.50;;;0.30;;
64291;SDS011;50628;51.008;13.658;2023-03-14T04:56:27;0.23;;;0.20;;
64291;SDS011;50628;51.008;13.658;2023-03-14T05:01:31;0.43;;;0.20;;
64291;SDS011;50628;51.008;13.658;2023-03-14T05:06:52;1.50;;;0.40;;
64291;SDS011;50628;51.008;13.658;2023-03-14T05:12:16;2.77;;;0.30;;
64291;SDS011;50628;51.008;13.658;2023-03-14T05:17:52;2.03;;;0.43;;
64291;SDS011;50628;51.008;13.658;2023-03-14T05:23:04;1.20;;;0.30;;
64291;SDS011;50628;51.008;13.658;2023-03-14T05:28:35;4.17;;;0.50;;
64291;SDS011;50628;51.008;13.658;2023-03-14T05:34:01;2.97;;;0.70;;
64291;SDS011;50628;51.008;13.658;2023-03-14T05:39:12;4.43;;;0.97;;
64291;SDS011;50628;51.008;13.658;2023-03-14T05:44:38;3.17;;;0.67;;
64291;SDS011;50628;51.008;13.658;2023-03-14T05:50:01;5.63;;;0.80;;
64291;SDS011;50628;51.008;13.658;2023-03-14T05:55:30;3.07;;;0.50;;
64291;SDS011;50628;51.008;13.658;2023-03-14T06:00:56;3.40;;;0.50;;
64291;SDS011;50628;51.008;13.658;2023-03-14T06:06:14;14.57;;;8.97;;
64291;SDS011;50628;51.008;13.658;2023-03-14T06:11:17;3.17;;;1.10;;
64291;SDS011;50628;51.008;13.658;2023-03-14T06:16:20;3.97;;;0.63;;
64291;SDS011;50628;51.008;13.658;2023-03-14T06:21:23;2.67;;;0.80;;
64291;SDS011;50628;51.008;13.658;2023-03-14T06:26:27;3.70;;;0.87;;
64291;SDS011;50628;51.008;13.658;2023-03-14T06:31:29;1.83;;;0.60;;
64291;SDS011;50628;51.008;13.658;2023-03-14T06:36:36;7.80;;;0.80;;
64291;SDS011;50628;51.008;13.658;2023-03-14T06:41:38;3.57;;;1.10;;
64291;SDS011;50628;51.008;13.658;2023-03-14T06:46:42;4.57;;;0.80;;
64291;SDS011;50628;51.008;13.658;2023-03-14T06:51:45;4.77;;;1.33;;
64291;SDS011;50628;51.008;13.658;2023-03-14T06:56:48;8.93;;;1.23;;
64291;SDS011;50628;51.008;13.658;2023-03-14T07:01:50;10.13;;;1.17;;
64291;SDS011;50628;51.008;13.658;2023-03-14T07:06:53;2.57;;;0.77;;
64291;SDS011;50628;51.008;13.658;2023-03-14T07:11:55;5.13;;;0.70;;
64291;SDS011;50628;51.008;13.658;2023-03-14T07:16:57;5.80;;;1.80;;
64291;SDS011;50628;51.008;13.658;2023-03-14T07:22:01;5.03;;;1.70;;
64291;SDS011;50628;51.008;13.658;2023-03-14T07:27:03;11.33;;;2.73;;
64291;SDS011;50628;51.008;13.658;2023-03-14T07:32:05;8.63;;;1.10;;
64291;SDS011;50628;51.008;13.658;2023-03-14T07:37:09;4.03;;;0.50;;
64291;SDS011;50628;51.008;13.658;2023-03-14T07:42:11;3.07;;;0.47;;
64291;SDS011;50628;51.008;13.658;2023-03-14T07:47:33;4.47;;;0.90;;
64291;SDS011;50628;51.008;13.658;2023-03-14T07:52:37;6.60;;;1.00;;
64291;SDS011;50628;51.008;13.658;2023-03-14T07:57:38;5.47;;;0.60;;
64291;SDS011;50628;51.008;13.658;2023-03-14T08:02:41;3.57;;;0.70;;
64291;SDS011;50628;51.008;13.658;2023-03-14T08:07:44;2.43;;;0.70;;
64291;SDS011;50628;51.008;13.658;2023-03-14T08:12:46;4.07;;;0.60;;
64291;SDS011;50628;51.008;13.658;2023-03-14T08:17:48;5.67;;;0.97;;
64291;SDS011;50628;51.008;13.658;2023-03-14T08:22:53;0.83;;;0.37;;
64291;SDS011;50628;51.008;13.658;2023-03-14T08:27:57;3.47;;;0.60;;
64291;SDS011;50628;51.008;13.658;2023-03-14T08:32:59;3.87;;;0.90;;
64291;SDS011;50628;51.008;13.658;2023-03-14T08:38:02;7.90;;;0.60;;
64291;SDS011;50628;51.008;13.658;2023-03-14T08:43:04;3.77;;;0.60;;
64291;SDS011;50628;51.008;13.658;2023-03-14T08:48:06;2.90;;;0.60;;
64291;SDS011;50628;51.008;13.658;2023-03-14T08:53:09;10.23;;;1.03;;
64291;SDS011;50628;51.008;13.658;2023-03-14T08:58:11;3.60;;;0.73;;
64291;SDS011;50628;51.008;13.658;2023-03-14T09:03:12;3.00;;;0.70;;
64291;SDS011;50628;51.008;13.658;2023-03-14T09:08:16;4.20;;;0.60;;
64291;SDS011;50628;51.008;13.658;2023-03-14T09:13:18;0.90;;;0.30;;
64291;SDS011;50628;51.008;13.658;2023-03-14T09:18:20;12.67;;;0.97;;
64291;SDS011;50628;51.008;13.658;2023-03-14T09:23:24;4.43;;;0.47;;
64291;SDS011;50628;51.008;13.658;2023-03-14T09:28:26;1.30;;;0.50;;
64291;SDS011;50628;51.008;13.658;2023-03-14T09:33:28;5.07;;;0.60;;
64291;SDS011;50628;51.008;13.658;2023-03-14T09:38:31;3.83;;;0.40;;
64291;SDS011;50628;51.008;13.658;2023-03-14T09:43:33;1.57;;;0.50;;
64291;SDS011;50628;51.008;13.658;2023-03-14T09:48:38;2.17;;;0.40;;
64291;SDS011;50628;51.008;13.658;2023-03-14T09:53:43;2.53;;;0.40;;
64291;SDS011;50628;51.008;13.658;2023-03-14T09:58:48;2.33;;;0.50;;
64291;SDS011;50628;51.008;13.658;2023-03-14T10:03:53;2.63;;;0.30;;
64291;SDS011;50628;51.008;13.658;2023-03-14T10:08:58;1.23;;;0.30;;
64291;SDS011;50628;51.008;13.658;2023-03-14T10:14:04;6.07;;;0.30;;
64291;SDS011;50628;51.008;13.658;2023-03-14T10:19:09;5.97;;;0.80;;
64291;SDS011;50628;51.008;13.658;2023-03-14T10:24:21;3.40;;;0.40;;
64291;SDS011;50628;51.008;13.658;2023-03-14T10:29:28;4.60;;;0.50;;
64291;SDS011;50628;51.008;13.658;2023-03-14T10:34:31;3.60;;;0.30;;
64291;SDS011;50628;51.008;13.658;2023-03-14T10:39:39;4.60;;;0.70;;
64291;SDS011;50628;51.008;13.658;2023-03-14T10:44:46;6.17;;;0.50;;
64291;SDS011;50628;51.008;13.658;2023-03-14T10:49:55;13.90;;;1.27;;
64291;SDS011;50628;51.008;13.658;2023-03-14T10:55:00;1.23;;;0.30;;
64291;SDS011;50628;51.008;13.658;2023-03-14T11:00:05;0.60;;;0.33;;
64291;SDS011;50628;51.008;13.658;2023-03-14T11:05:19;2.27;;;0.27;;
64291;SDS011;50628;51.008;13.658;2023-03-14T11:10:32;7.33;;;0.50;;
64291;SDS011;50628;51.008;13.658;2023-03-14T11:15:38;1.70;;;0.40;;
64291;SDS011;50628;51.008;13.658;2023-03-14T11:20:44;1.60;;;0.30;;
64291;SDS011;50628;51.008;13.658;2023-03-14T11:25:56;2.17;;;0.30;;
64291;SDS011;50628;51.008;13.658;2023-03-14T11:31:04;2.73;;;0.43;;
64291;SDS011;50628;51.008;13.658;2023-03-14T11:36:17;1.40;;;0.40;;
64291;SDS011;50628;51.008;13.658;2023-03-14T11:41:25;1.53;;;0.30;;
64291;SDS011;50628;51.008;13.658;2023-03-14T11:46:31;2.03;;;0.37;;
64291;SDS011;50628;51.008;13.658;2023-03-14T11:51:36;1.53;;;0.30;;
64291;SDS011;50628;51.008;13.658;2023-03-14T11:56:44;2.50;;;0.47;;
64291;SDS011;50628;51.008;13.658;2023-03-14T12:01:54;4.50;;;0.47;;
64291;SDS011;50628;51.008;13.658;2023-03-14T12:07:00;0.53;;;0.33;;
64291;SDS011;50628;51.008;13.658;2023-03-14T12:12:10;3.50;;;0.20;;
64291;SDS011;50628;51.008;13.658;2023-03-14T12:17:19;0.80;;;0.30;;
64291;SDS011;50628;51.008;13.658;2023-03-14T12:22:26;2.70;;;0.30;;
64291;SDS011;50628;51.008;13.658;2023-03-14T12:27:42;1.53;;;0.40;;
64291;SDS011;50628;51.008;13.658;2023-03-14T12:38:14;0.37;;;0.17;;
64291;SDS011;50628;51.008;13.658;2023-03-14T12:43:25;2.40;;;0.40;;
64291;SDS011;50628;51.008;13.658;2023-03-14T12:48:28;3.00;;;0.30;;
64291;SDS011;50628;51.008;13.658;2023-03-14T12:53:41;2.53;;;0.30;;
64291;SDS011;50628;51.008;13.658;2023-03-14T13:04:31;2.60;;;0.20;;
64291;SDS011;50628;51.008;13.658;2023-03-14T13:09:45;2.10;;;0.20;;
64291;SDS011;50628;51.008;13.658;2023-03-14T13:14:57;10.83;;;2.10;;
64291;SDS011;50628;51.008;13.658;2023-03-14T13:20:01;24.13;;;3.30;;
64291;SDS011;50628;51.008;13.658;2023-03-14T13:25:09;16.00;;;3.30;;
64291;SDS011;50628;51.008;13.658;2023-03-14T13:30:15;4.37;;;0.63;;
64291;SDS011;50628;51.008;13.658;2023-03-14T13:35:21;4.57;;;1.70;;
64291;SDS011;50628;51.008;13.658;2023-03-14T13:40:26;6.83;;;2.30;;
64291;SDS011;50628;51.008;13.658;2023-03-14T13:45:33;6.85;;;0.75;;
64291;SDS011;50628;51.008;13.658;2023-03-14T13:50:54;2.40;;;1.00;;
64291;SDS011;50628;51.008;13.658;2023-03-14T13:56:01;3.53;;;0.63;;
64291;SDS011;50628;51.008;13.658;2023-03-14T14:01:12;2.57;;;0.43;;
64291;SDS011;50628;51.008;13.658;2023-03-14T14:06:19;0.20;;;0.20;;
64291;SDS011;50628;51.008;13.658;2023-03-14T14:11:31;3.20;;;1.13;;
64291;SDS011;50628;51.008;13.658;2023-03-14T14:16:39;1.37;;;0.10;;
64291;SDS011;50628;51.008;13.658;2023-03-14T14:21:42;11.17;;;1.20;;
64291;SDS011;50628;51.008;13.658;2023-03-14T14:26:46;2.78;;;0.43;;
64291;SDS011;50628;51.008;13.658;2023-03-14T14:31:58;3.70;;;0.30;;
64291;SDS011;50628;51.008;13.658;2023-03-14T14:37:01;1.87;;;0.40;;
64291;SDS011;50628;51.008;13.658;2023-03-14T14:42:03;0.70;;;0.20;;
64291;SDS011;50628;51.008;13.658;2023-03-14T14:47:11;2.90;;;0.83;;
64291;SDS011;50628;51.008;13.658;2023-03-14T14:52:15;0.67;;;0.30;;
64291;SDS011;50628;51.008;13.658;2023-03-14T14:57:18;0.10;;;0.10;;
64291;SDS011;50628;51.008;13.658;2023-03-14T15:02:35;0.77;;;0.20;;
64291;SDS011;50628;51.008;13.658;2023-03-14T15:07:40;0.22;;;0.20;;
64291;SDS011;50628;51.008;13.658;2023-03-14T15:12:42;0.38;;;0.20;;
64291;SDS011;50628;51.008;13.658;2023-03-14T15:17:45;2.73;;;0.20;;
64291;SDS011;50628;51.008;13.658;2023-03-14T15:22:47;0.70;;;0.20;;
64291;SDS011;50628;51.008;13.658;2023-03-14T15:27:49;2.10;;;0.30;;
64291;SDS011;50628;51.008;13.658;2023-03-14T15:32:52;2.80;;;0.30;;
64291;SDS011;50628;51.008;13.658;2023-03-14T15:37:54;1.40;;;0.17;;
64291;SDS011;50628;51.008;13.658;2023-03-14T15:42:55;1.93;;;0.20;;
64291;SDS011;50628;51.008;13.658;2023-03-14T15:47:59;1.23;;;0.33;;
64291;SDS011;50628;51.008;13.658;2023-03-14T15:53:01;1.40;;;0.47;;
64291;SDS011;50628;51.008;13.658;2023-03-14T15:58:03;1.37;;;0.30;;
64291;SDS011;50628;51.008;13.658;2023-03-14T16:03:06;2.60;;;0.30;;
64291;SDS011;50628;51.008;13.658;2023-03-14T16:08:08;2.47;;;1.00;;
64291;SDS011;50628;51.008;13.658;2023-03-14T16:13:10;1.43;;;0.30;;
64291;SDS011;50628;51.008;13.658;2023-03-14T16:18:13;1.90;;;0.20;;
64291;SDS011;50628;51.008;13.658;2023-03-14T16:23:15;2.40;;;0.87;;
64291;SDS011;50628;51.008;13.658;2023-03-14T16:28:17;2.47;;;0.43;;
64291;SDS011;50628;51.008;13.658;2023-03-14T16:33:21;6.70;;;1.57;;
64291;SDS011;50628;51.008;13.658;2023-03-14T16:38:24;8.10;;;2.20;;
64291;SDS011;50628;51.008;13.658;2023-03-14T16:43:26;2.77;;;0.83;;
64291;SDS011;50628;51.008;13.658;2023-03-14T16:48:29;1.30;;;0.30;;
64291;SDS011;50628;51.008;13.658;2023-03-14T16:53:31;0.67;;;0.40;;
64291;SDS011;50628;51.008;13.658;2023-03-14T16:58:33;1.23;;;0.50;;
64291;SDS011;50628;51.008;13.658;2023-03-14T17:03:36;1.70;;;0.80;;
64291;SDS011;50628;51.008;13.658;2023-03-14T17:08:39;1.83;;;0.50;;
64291;SDS011;50628;51.008;13.658;2023-03-14T17:13:41;0.40;;;0.20;;
64291;SDS011;50628;51.008;13.658;2023-03-14T17:18:44;0.57;;;0.30;;
64291;SDS011;50628;51.008;13.658;2023-03-14T17:23:46;0.47;;;0.23;;
64291;SDS011;50628;51.008;13.658;2023-03-14T17:28:48;0.30;;;0.30;;
64291;SDS011;50628;51.008;13.658;2023-03-14T17:33:52;0.40;;;0.37;;
64291;SDS011;50628;51.008;13.658;2023-03-14T17:38:54;0.60;;;0.10;;
64291;SDS011;50628;51.008;13.658;2023-03-14T17:43:57;1.17;;;0.20;;
64291;SDS011;50628;51.008;13.658;2023-03-14T17:49:00;0.20;;;0.20;;
64291;SDS011;50628;51.008;13.658;2023-03-14T17:54:02;0.97;;;0.20;;
64291;SDS011;50628;51.008;13.658;2023-03-14T17:59:04;1.87;;;1.40;;
64291;SDS011;50628;51.008;13.658;2023-03-14T18:04:07;1.10;;;0.20;;
64291;SDS011;50628;51.008;13.658;2023-03-14T18:09:09;1.37;;;0.20;;
64291;SDS011;50628;51.008;13.658;2023-03-14T18:14:11;0.20;;;0.20;;
64291;SDS011;50628;51.008;13.658;2023-03-14T18:19:16;0.43;;;0.30;;
64291;SDS011;50628;51.008;13.658;2023-03-14T18:24:18;3.57;;;0.40;;
64291;SDS011;50628;51.008;13.658;2023-03-14T18:29:21;1.03;;;0.30;;
64291;SDS011;50628;51.008;13.658;2023-03-14T18:34:24;1.37;;;0.50;;
64291;SDS011;50628;51.008;13.658;2023-03-14T18:39:26;1.30;;;0.57;;
64291;SDS011;50628;51.008;13.658;2023-03-14T18:44:28;1.83;;;0.60;;
64291;SDS011;50628;51.008;13.658;2023-03-14T18:49:31;2.03;;;0.60;;
64291;SDS011;50628;51.008;13.658;2023-03-14T18:54:33;1.10;;;0.30;;
64291;SDS011;50628;51.008;13.658;2023-03-14T18:59:35;1.90;;;0.50;;
64291;SDS011;50628;51.008;13.658;2023-03-14T19:04:38;3.00;;;0.70;;
64291;SDS011;50628;51.008;13.658;2023-03-14T19:09:40;3.57;;;0.60;;
64291;SDS011;50628;51.008;13.658;2023-03-14T19:14:42;4.33;;;0.60;;
64291;SDS011;50628;51.008;13.658;2023-03-14T19:19:46;3.90;;;1.13;;
64291;SDS011;50628;51.008;13.658;2023-03-14T19:24:47;7.20;;;1.90;;
64291;SDS011;50628;51.008;13.658;2023-03-14T19:29:49;4.07;;;0.80;;
64291;SDS011;50628;51.008;13.658;2023-03-14T19:34:52;6.13;;;1.63;;
64291;SDS011;50628;51.008;13.658;2023-03-14T19:39:54;12.37;;;2.63;;
64291;SDS011;50628;51.008;13.658;2023-03-14T19:44:56;5.00;;;1.20;;
64291;SDS011;50628;51.008;13.658;2023-03-14T19:50:00;8.83;;;1.50;;
64291;SDS011;50628;51.008;13.658;2023-03-14T19:55:02;8.53;;;1.60;;
64291;SDS011;50628;51.008;13.658;2023-03-14T20:00:04;10.30;;;1.27;;
64291;SDS011;50628;51.008;13.658;2023-03-14T20:05:13;6.57;;;1.87;;
64291;SDS011;50628;51.008;13.658;2023-03-14T20:10:16;13.93;;;1.77;;
64291;SDS011;50628;51.008;13.658;2023-03-14T20:15:21;8.53;;;1.80;;
64291;SDS011;50628;51.008;13.658;2023-03-14T20:20:25;7.13;;;1.30;;
64291;SDS011;50628;51.008;13.658;2023-03-14T20:25:29;10.30;;;1.53;;
64291;SDS011;50628;51.008;13.658;2023-03-14T20:30:31;6.07;;;1.27;;
64291;SDS011;50628;51.008;13.658;2023-03-14T20:35:35;13.33;;;1.97;;
64291;SDS011;50628;51.008;13.658;2023-03-14T20:40:38;10.27;;;2.87;;
64291;SDS011;50628;51.008;13.658;2023-03-14T20:45:39;7.90;;;1.73;;
64291;SDS011;50628;51.008;13.658;2023-03-14T20:50:43;11.87;;;2.13;;
64291;SDS011;50628;51.008;13.658;2023-03-14T20:55:46;7.67;;;1.00;;
64291;SDS011;50628;51.008;13.658;2023-03-14T21:00:49;12.63;;;0.90;;
64291;SDS011;50628;51.008;13.658;2023-03-14T21:05:54;11.57;;;1.43;;
64291;SDS011;50628;51.008;13.658;2023-03-14T21:10:58;9.07;;;1.50;;
64291;SDS011;50628;51.008;13.658;2023-03-14T21:16:00;11.10;;;1.53;;
64291;SDS011;50628;51.008;13.658;2023-03-14T21:21:03;13.10;;;1.67;;
64291;SDS011;50628;51.008;13.658;2023-03-14T21:26:05;8.73;;;1.80;;
64291;SDS011;50628;51.008;13.658;2023-03-14T21:31:08;8.73;;;1.50;;
64291;SDS011;50628;51.008;13.658;2023-03-14T21:36:12;10.80;;;2.10;;
64291;SDS011;50628;51.008;13.658;2023-03-14T21:41:14;9.80;;;1.90;;
64291;SDS011;50628;51.008;13.658;2023-03-14T21:46:16;7.40;;;1.77;;
64291;SDS011;50628;51.008;13.658;2023-03-14T21:51:19;8.37;;;1.90;;
64291;SDS011;50628;51.008;13.658;2023-03-14T21:56:21;13.30;;;2.17;;
64291;SDS011;50628;51.008;13.658;2023-03-14T22:01:26;9.70;;;1.60;;
64291;SDS011;50628;51.008;13.658;2023-03-14T22:06:29;7.73;;;1.47;;
64291;SDS011;50628;51.008;13.658;2023-03-14T22:11:31;11.17;;;1.50;;
64291;SDS011;50628;51.008;13.658;2023-03-14T22:16:33;12.13;;;1.83;;
64291;SDS011;50628;51.008;13.658;2023-03-14T22:21:36;9.80;;;1.83;;
64291;SDS011;50628;51.008;13.658;2023-03-14T22:26:38;11.97;;;2.07;;
64291;SDS011;50628;51.008;13.658;2023-03-14T22:31:40;8.37;;;1.73;;
64291;SDS011;50628;51.008;13.658;2023-03-14T22:36:43;13.20;;;1.80;;
64291;SDS011;50628;51.008;13.658;2023-03-14T22:41:45;12.00;;;1.73;;
64291;SDS011;50628;51.008;13.658;2023-03-14T22:46:46;9.10;;;1.63;;
64291;SDS011;50628;51.008;13.658;2023-03-14T22:51:50;11.33;;;1.53;;
64291;SDS011;50628;51.008;13.658;2023-03-14T22:56:52;9.83;;;1.90;;
64291;SDS011;50628;51.008;13.658;2023-03-14T23:01:54;6.20;;;1.80;;
64291;SDS011;50628;51.008;13.658;2023-03-14T23:07:00;5.13;;;1.23;;
64291;SDS011;50628;51.008;13.658;2023-03-14T23:12:01;8.97;;;1.07;;
64291;SDS011;50628;51.008;13.658;2023-03-14T23:17:04;8.73;;;1.87;;
64291;SDS011;50628;51.008;13.658;2023-03-14T23:22:07;12.07;;;1.43;;
64291;SDS011;50628;51.008;13.658;2023-03-14T23:27:09;8.90;;;1.40;;
64291;SDS011;50628;51.008;13.658;2023-03-14T23:32:11;8.70;;;1.70;;
64291;SDS011;50628;51.008;13.658;2023-03-14T23:37:15;7.70;;;1.40;;
64291;SDS011;50628;51.008;13.658;2023-03-14T23:42:17;10.10;;;1.23;;
64291;SDS011;50628;51.008;13.658;2023-03-14T23:47:19;12.63;;;1.50;;
64291;SDS011;50628;51.008;13.658;2023-03-14T23:52:23;8.87;;;1.20;;
64291;SDS011;50628;51.008;13.658;2023-03-14T23:57:24;9.57;;;1.87;;
